Time;durP1;ratioP1;P1;durP2;ratioP2;P2;SDS_P1;SDS_P2;PMS_P1;PMS_P2;Temp;Humidity;BMP_temperature;BMP_pressure;BME280_temperature;BME280_humidity;BME280_pressure;Samples;Min_cycle;Max_cycle;Signal;HPM_P1;HPM_P2
2023/10/18 00:00:57;;;;;;;5.05;4.47;;;7.50;95.90;;;;;;5059122;28;20431;-69
2023/10/18 00:03:25;;;;;;;4.22;3.83;;;7.50;95.80;;;;;;5061669;28;20864;-70
2023/10/18 00:05:53;;;;;;;4.45;4.05;;;7.50;95.70;;;;;;5066593;28;20917;-68
2023/10/18 00:08:22;;;;;;;4.80;4.30;;;7.50;95.90;;;;;;5069726;28;21039;-71
2023/10/18 00:10:50;;;;;;;5.05;4.00;;;7.50;95.80;;;;;;5062102;28;21479;-68
2023/10/18 00:13:18;;;;;;;6.00;4.40;;;7.50;96.20;;;;;;5062262;28;20922;-69
2023/10/18 00:15:45;;;;;;;4.70;3.92;;;7.50;95.90;;;;;;5065896;28;20432;-68
2023/10/18 00:18:12;;;;;;;4.68;3.85;;;7.50;95.90;;;;;;5059637;28;20435;-69
2023/10/18 00:20:38;;;;;;;4.30;3.90;;;7.50;95.90;;;;;;5061459;28;20472;-69
2023/10/18 00:23:07;;;;;;;4.43;3.90;;;7.50;95.90;;;;;;5067886;28;20984;-68
2023/10/18 00:25:33;;;;;;;4.30;3.80;;;7.50;96.10;;;;;;5061595;28;20435;-69
2023/10/18 00:28:00;;;;;;;4.20;3.90;;;7.50;95.90;;;;;;5061930;28;20427;-69
2023/10/18 00:30:29;;;;;;;4.93;4.30;;;7.50;96.10;;;;;;5061307;28;20479;-69
2023/10/18 00:32:57;;;;;;;4.40;4.00;;;7.50;96.20;;;;;;5054373;28;20443;-69
2023/10/18 00:35:31;;;;;;;5.10;4.40;;;7.40;96.10;;;;;;5063790;28;20429;-68
2023/10/18 00:37:58;;;;;;;4.73;4.33;;;7.40;96.10;;;;;;5053277;28;20439;-69
2023/10/18 00:40:36;;;;;;;6.13;4.50;;;7.40;96.00;;;;;;5061419;28;20931;-70
2023/10/18 00:43:07;;;;;;;5.30;4.20;;;7.40;96.00;;;;;;5059415;28;20500;-69
2023/10/18 00:45:40;;;;;;;6.90;4.60;;;7.30;96.10;;;;;;5061506;28;20426;-70
2023/10/18 00:48:07;;;;;;;5.78;4.80;;;7.30;96.00;;;;;;5064412;28;20470;-71
2023/10/18 00:50:37;;;;;;;4.45;4.05;;;7.30;96.20;;;;;;5056536;28;20414;-70
2023/10/18 00:53:05;;;;;;;4.50;4.10;;;7.30;95.90;;;;;;5063167;28;20427;-70
2023/10/18 00:55:33;;;;;;;4.80;4.40;;;7.30;95.80;;;;;;5065166;28;20435;-71
2023/10/18 00:58:02;;;;;;;4.63;4.10;;;7.20;95.70;;;;;;5065876;28;20449;-70
2023/10/18 01:00:30;;;;;;;4.70;4.30;;;7.20;95.70;;;;;;5064565;28;20857;-70
2023/10/18 01:03:00;;;;;;;5.22;4.68;;;7.20;95.70;;;;;;5067256;28;20445;-71
2023/10/18 01:05:28;;;;;;;4.70;4.30;;;7.20;95.80;;;;;;5059399;28;20438;-71
2023/10/18 01:07:55;;;;;;;5.47;4.70;;;7.20;96.00;;;;;;5060961;28;20469;-70
2023/10/18 01:10:23;;;;;;;4.97;4.38;;;7.20;96.00;;;;;;5062813;28;20434;-69
2023/10/18 01:12:52;;;;;;;4.50;4.10;;;7.20;95.80;;;;;;5060338;28;20454;-69
2023/10/18 01:15:20;;;;;;;5.78;4.45;;;7.10;95.80;;;;;;5066723;28;20461;-72
2023/10/18 01:17:47;;;;;;;6.15;4.60;;;7.10;96.00;;;;;;5062949;28;20429;-72
2023/10/18 01:20:33;;;;;;;4.83;4.20;;;7.10;96.20;;;;;;5061390;28;20518;-72
2023/10/18 01:23:00;;;;;;;4.68;4.28;;;7.10;96.30;;;;;;5056099;28;20423;-71
2023/10/18 01:25:29;;;;;;;4.38;3.97;;;7.10;96.30;;;;;;5060345;28;20447;-71
2023/10/18 01:27:56;;;;;;;5.70;4.50;;;7.10;96.40;;;;;;5066842;28;20450;-72
2023/10/18 01:30:23;;;;;;;5.20;4.70;;;7.10;96.50;;;;;;5068562;28;20417;-72
2023/10/18 01:32:51;;;;;;;4.80;4.30;;;7.10;96.30;;;;;;5063751;28;20435;-72
2023/10/18 01:35:17;;;;;;;5.33;4.57;;;7.10;96.10;;;;;;5073363;28;20442;-72
2023/10/18 01:37:44;;;;;;;6.30;4.20;;;7.10;95.90;;;;;;5068915;28;20427;-71
2023/10/18 01:40:21;;;;;;;4.60;4.20;;;7.10;96.00;;;;;;5066487;28;20429;-71
2023/10/18 01:42:55;;;;;;;4.85;4.40;;;7.10;96.10;;;;;;5068931;28;20549;-71
2023/10/18 01:45:23;;;;;;;5.65;4.60;;;7.10;96.00;;;;;;5062125;28;20943;-71
2023/10/18 01:47:52;;;;;;;4.60;4.20;;;7.10;96.10;;;;;;5068483;28;20886;-72
2023/10/18 01:50:21;;;;;;;4.95;4.22;;;7.10;96.50;;;;;;5065110;28;20404;-72
2023/10/18 01:52:49;;;;;;;4.65;4.20;;;7.10;96.50;;;;;;5067266;28;20488;-71
2023/10/18 01:55:17;;;;;;;4.90;4.40;;;7.10;96.60;;;;;;5063496;28;20848;-71
2023/10/18 01:57:45;;;;;;;5.85;4.60;;;7.10;96.20;;;;;;5064477;28;20437;-71
2023/10/18 02:00:18;;;;;;;4.50;4.10;;;7.10;96.20;;;;;;5068578;28;20436;-70
2023/10/18 02:02:47;;;;;;;4.50;4.10;;;7.10;96.10;;;;;;5062401;28;20450;-70
2023/10/18 02:05:16;;;;;;;4.40;4.00;;;7.00;96.00;;;;;;5061864;28;20821;-70
2023/10/18 02:07:46;;;;;;;4.95;4.20;;;7.10;95.90;;;;;;5063283;28;20500;-71
2023/10/18 02:10:20;;;;;;;5.50;4.03;;;7.00;96.00;;;;;;5064467;28;20427;-71
2023/10/18 02:12:47;;;;;;;4.90;4.40;;;7.00;96.00;;;;;;5075172;28;20446;-71
2023/10/18 02:15:15;;;;;;;4.80;4.07;;;7.00;96.10;;;;;;5064522;28;20427;-71
2023/10/18 02:17:43;;;;;;;4.53;3.90;;;7.00;96.20;;;;;;5063160;28;20521;-69
2023/10/18 02:20:25;;;;;;;5.30;4.10;;;7.00;96.30;;;;;;5065348;28;21219;-72
2023/10/18 02:22:53;;;;;;;4.50;4.10;;;7.10;96.00;;;;;;5064681;28;20558;-72
2023/10/18 02:25:36;;;;;;;4.25;3.85;;;7.10;95.90;;;;;;5063127;28;20445;-72
2023/10/18 02:28:08;;;;;;;4.70;4.20;;;7.10;95.90;;;;;;5061817;28;20431;-72
2023/10/18 02:30:36;;;;;;;4.60;4.20;;;7.10;96.00;;;;;;5065857;28;20974;-70
2023/10/18 02:33:04;;;;;;;4.40;4.00;;;7.10;96.20;;;;;;5075765;28;20412;-70
2023/10/18 02:35:31;;;;;;;4.65;4.07;;;7.10;96.00;;;;;;5065109;28;20460;-70
2023/10/18 02:38:07;;;;;;;5.00;4.27;;;7.10;96.10;;;;;;5066773;28;20427;-70
2023/10/18 02:40:38;;;;;;;4.80;4.30;;;7.10;96.00;;;;;;5062258;28;20456;-71
2023/10/18 02:43:10;;;;;;;4.80;4.07;;;7.10;96.00;;;;;;5069592;28;20469;-71
2023/10/18 02:45:40;;;;;;;4.82;4.40;;;7.10;96.10;;;;;;5064790;28;20481;-70
2023/10/18 02:48:13;;;;;;;4.50;4.10;;;7.10;95.90;;;;;;5068786;28;20438;-70
2023/10/18 02:50:41;;;;;;;4.15;3.75;;;7.10;95.60;;;;;;5064614;28;20427;-70
2023/10/18 02:53:08;;;;;;;4.73;4.00;;;7.10;95.80;;;;;;5060209;28;20459;-70
2023/10/18 02:55:38;;;;;;;4.90;4.40;;;7.10;95.90;;;;;;5065341;28;20442;-70
2023/10/18 02:58:06;;;;;;;4.90;4.17;;;7.10;96.20;;;;;;5062461;28;21122;-70
2023/10/18 03:00:40;;;;;;;4.70;4.30;;;7.10;95.90;;;;;;5065287;28;20430;-71
2023/10/18 03:03:08;;;;;;;4.43;4.03;;;7.10;95.70;;;;;;5066712;28;20790;-70
2023/10/18 03:05:40;;;;;;;4.43;4.03;;;7.00;95.50;;;;;;5069124;28;20419;-70
2023/10/18 03:08:08;;;;;;;5.00;4.22;;;7.10;95.50;;;;;;5068905;28;20982;-71
2023/10/18 03:10:43;;;;;;;5.30;4.40;;;7.10;95.40;;;;;;5066241;28;20526;-70
2023/10/18 03:13:13;;;;;;;4.90;4.40;;;7.00;95.50;;;;;;5066842;28;20518;-70
2023/10/18 03:15:52;;;;;;;4.93;4.13;;;7.00;95.40;;;;;;5067234;28;20499;-70
2023/10/18 03:18:24;;;;;;;5.35;4.20;;;7.00;95.60;;;;;;5068741;28;20763;-71
2023/10/18 03:20:53;;;;;;;4.20;3.80;;;7.00;95.70;;;;;;5066247;28;20444;-70
2023/10/18 03:23:19;;;;;;;4.88;4.38;;;7.00;95.60;;;;;;5068875;28;20419;-70
2023/10/18 03:25:46;;;;;;;5.72;4.30;;;7.00;95.50;;;;;;5067321;28;20873;-70
2023/10/18 03:28:13;;;;;;;4.90;4.00;;;7.00;95.30;;;;;;5066937;28;20427;-70
2023/10/18 03:30:44;;;;;;;4.53;4.13;;;7.00;95.30;;;;;;5066050;28;20496;-70
2023/10/18 03:33:12;;;;;;;4.20;3.90;;;7.10;95.00;;;;;;5068583;28;20422;-70
2023/10/18 03:35:40;;;;;;;4.50;3.80;;;7.10;95.20;;;;;;5068437;28;20837;-70
2023/10/18 03:38:16;;;;;;;4.90;4.30;;;7.10;95.10;;;;;;5064836;28;20436;-70
2023/10/18 03:40:48;;;;;;;4.90;4.10;;;7.00;95.20;;;;;;5064711;28;20431;-70
2023/10/18 03:43:15;;;;;;;5.55;3.83;;;7.00;95.50;;;;;;5065017;28;20846;-70
2023/10/18 03:48:39;;;;;;;4.65;3.80;;;7.00;95.40;;;;;;5063507;28;20429;-70
2023/10/18 03:51:06;;;;;;;4.50;4.10;;;7.00;95.40;;;;;;5059404;28;20932;-70
2023/10/18 03:53:33;;;;;;;4.90;4.38;;;7.00;95.50;;;;;;5068273;28;20491;-70
2023/10/18 03:56:02;;;;;;;5.05;4.05;;;7.00;95.70;;;;;;5061670;28;20426;-71
2023/10/18 03:58:34;;;;;;;4.88;3.80;;;7.00;95.60;;;;;;5067215;28;20474;-70
2023/10/18 04:01:02;;;;;;;5.10;4.30;;;7.00;95.80;;;;;;5057987;28;20434;-70
2023/10/18 04:03:30;;;;;;;5.03;4.05;;;6.90;95.60;;;;;;5071392;28;20416;-70
2023/10/18 04:06:03;;;;;;;4.40;3.92;;;6.90;95.60;;;;;;5064908;28;21634;-70
2023/10/18 04:08:32;;;;;;;4.28;3.83;;;7.00;95.80;;;;;;5067170;28;20431;-70
2023/10/18 04:11:01;;;;;;;4.35;3.95;;;6.90;95.90;;;;;;5058321;28;20425;-70
2023/10/18 04:13:31;;;;;;;4.30;3.90;;;6.90;95.80;;;;;;5064606;28;20434;-70
2023/10/18 04:16:03;;;;;;;5.00;3.88;;;6.90;95.90;;;;;;5065976;28;20438;-70
2023/10/18 04:18:35;;;;;;;4.30;3.90;;;6.90;95.90;;;;;;5068052;28;20431;-70
2023/10/18 04:21:05;;;;;;;4.82;3.80;;;6.90;95.80;;;;;;5065053;28;20585;-70
2023/10/18 04:23:34;;;;;;;5.70;4.05;;;6.90;95.80;;;;;;5063831;28;20470;-70
2023/10/18 04:26:01;;;;;;;4.20;3.80;;;6.90;95.90;;;;;;5066697;28;20933;-71
2023/10/18 04:28:29;;;;;;;6.63;4.28;;;6.90;95.60;;;;;;5066315;28;20970;-70
2023/10/18 04:31:00;;;;;;;4.40;4.00;;;6.90;95.40;;;;;;5066498;28;21019;-71
2023/10/18 04:33:28;;;;;;;5.63;4.30;;;6.90;95.30;;;;;;5066392;28;20479;-70
2023/10/18 04:35:58;;;;;;;5.63;4.20;;;6.90;95.30;;;;;;5062605;28;20473;-70
2023/10/18 04:38:30;;;;;;;4.40;4.00;;;6.90;95.20;;;;;;5066679;28;20841;-70
2023/10/18 04:41:06;;;;;;;5.00;4.40;;;6.90;95.10;;;;;;5066045;28;20844;-70
2023/10/18 04:43:33;;;;;;;5.88;4.60;;;6.90;95.00;;;;;;5065170;28;20942;-69
2023/10/18 04:46:07;;;;;;;4.70;4.30;;;6.90;95.20;;;;;;5064981;28;20446;-68
2023/10/18 04:51:26;;;;;;;4.65;4.25;;;6.90;95.40;;;;;;5060764;28;20905;-71
2023/10/18 04:53:53;;;;;;;4.90;4.50;;;6.90;95.30;;;;;;5065778;28;20432;-70
2023/10/18 04:56:29;;;;;;;4.93;4.15;;;6.90;94.90;;;;;;5064565;28;20427;-69
2023/10/18 04:58:59;;;;;;;5.60;4.75;;;7.00;95.00;;;;;;5065674;28;20443;-69
2023/10/18 05:01:33;;;;;;;6.28;5.00;;;7.00;95.00;;;;;;5063222;28;20835;-69
2023/10/18 05:04:09;;;;;;;5.82;4.72;;;7.00;94.80;;;;;;5064443;28;20466;-69
2023/10/18 05:06:42;;;;;;;7.15;5.10;;;7.00;94.50;;;;;;5066895;28;20423;-69
2023/10/18 05:09:12;;;;;;;5.78;5.10;;;7.00;94.70;;;;;;5065778;28;20816;-70
2023/10/18 05:11:47;;;;;;;7.32;5.28;;;7.00;94.60;;;;;;5065752;28;20921;-69
2023/10/18 05:14:19;;;;;;;8.80;5.47;;;7.00;94.90;;;;;;5067414;28;20500;-70
2023/10/18 05:16:46;;;;;;;7.07;5.60;;;7.00;95.00;;;;;;5068504;28;20493;-70
2023/10/18 05:19:14;;;;;;;5.50;4.63;;;7.00;94.90;;;;;;5064251;28;20432;-70
2023/10/18 05:21:40;;;;;;;5.53;4.70;;;7.00;94.90;;;;;;5065081;28;20438;-70
2023/10/18 05:24:16;;;;;;;7.35;5.00;;;7.00;94.60;;;;;;5065677;28;20940;-71
2023/10/18 05:26:45;;;;;;;4.80;4.40;;;7.00;94.80;;;;;;5066921;28;20430;-71
2023/10/18 05:29:17;;;;;;;5.10;4.60;;;7.00;94.70;;;;;;5069581;28;20492;-74
2023/10/18 05:32:05;;;;;;;5.00;4.60;;;7.00;94.80;;;;;;5060222;28;20487;-72
2023/10/18 05:37:14;;;;;;;6.88;4.90;;;7.00;94.60;;;;;;5078589;28;20410;-73
2023/10/18 05:40:42;;;;;;;4.75;4.35;;;7.00;94.60;;;;;;5073433;28;21055;-71
2023/10/18 05:42:46;;;;;;;5.38;4.70;;;7.00;94.60;;;;;;5063761;28;20459;-71
2023/10/18 05:45:13;;;;;;;5.10;4.60;;;7.00;94.60;;;;;;5067517;28;20509;-74
2023/10/18 05:47:42;;;;;;;5.50;4.83;;;7.00;94.50;;;;;;5070662;28;20514;-74
2023/10/18 05:50:12;;;;;;;5.25;4.75;;;7.00;94.60;;;;;;5061312;28;20424;-74
2023/10/18 05:52:40;;;;;;;7.32;5.57;;;7.00;94.70;;;;;;5070927;28;20951;-72
2023/10/18 05:55:12;;;;;;;7.20;4.80;;;7.00;94.80;;;;;;5062007;28;20428;-73
2023/10/18 05:57:40;;;;;;;5.55;4.97;;;7.00;94.70;;;;;;5065447;28;20446;-74
2023/10/18 06:00:16;;;;;;;5.85;5.00;;;7.00;94.70;;;;;;5055646;28;20520;-72
2023/10/18 06:02:43;;;;;;;5.38;4.88;;;7.00;94.60;;;;;;5058603;28;20425;-72
2023/10/18 06:05:10;;;;;;;6.05;4.90;;;6.90;94.80;;;;;;5060277;28;20432;-72
2023/10/18 06:07:37;;;;;;;6.00;4.72;;;6.90;94.70;;;;;;5067296;28;20437;-72
2023/10/18 06:10:13;;;;;;;6.05;4.40;;;6.90;94.70;;;;;;5056601;28;20412;-70
2023/10/18 06:12:46;;;;;;;6.20;5.00;;;6.90;94.90;;;;;;5068255;28;20430;-70
2023/10/18 06:15:13;;;;;;;8.60;5.28;;;6.90;94.80;;;;;;5075095;28;20502;-70
2023/10/18 06:17:53;;;;;;;6.03;5.30;;;6.90;94.90;;;;;;5065202;28;20416;-70
2023/10/18 06:20:27;;;;;;;5.95;5.35;;;6.90;94.90;;;;;;5069852;28;20476;-71
2023/10/18 06:23:07;;;;;;;6.40;5.60;;;6.90;95.10;;;;;;5071748;28;20429;-70
2023/10/18 06:25:36;;;;;;;6.20;5.23;;;6.90;94.90;;;;;;5068570;28;20422;-71
2023/10/18 06:28:07;;;;;;;5.80;5.30;;;6.90;95.00;;;;;;5062050;28;20414;-71
2023/10/18 06:30:39;;;;;;;6.45;5.28;;;6.90;95.00;;;;;;5067548;28;20458;-71
2023/10/18 06:33:09;;;;;;;6.13;5.30;;;6.90;94.90;;;;;;5070677;28;20423;-70
2023/10/18 06:35:45;;;;;;;6.13;5.53;;;6.90;95.00;;;;;;5070192;28;20886;-70
2023/10/18 06:38:17;;;;;;;5.80;5.25;;;6.90;94.90;;;;;;5070828;28;20477;-71
2023/10/18 06:40:50;;;;;;;6.83;6.20;;;7.00;94.80;;;;;;5068825;28;20469;-70
2023/10/18 06:43:20;;;;;;;7.50;6.00;;;7.00;94.80;;;;;;5065957;28;20420;-70
2023/10/18 06:45:48;;;;;;;6.80;6.10;;;7.00;94.90;;;;;;5067774;28;20431;-71
2023/10/18 06:48:15;;;;;;;8.40;7.05;;;7.00;95.00;;;;;;5065055;28;20413;-70
2023/10/18 06:50:45;;;;;;;7.90;6.70;;;7.00;94.90;;;;;;5066479;28;20444;-70
2023/10/18 06:53:13;;;;;;;7.63;6.57;;;7.10;95.00;;;;;;5065330;28;20413;-71
2023/10/18 06:55:44;;;;;;;10.40;6.97;;;7.10;95.20;;;;;;5058617;28;20461;-70
2023/10/18 06:58:13;;;;;;;8.10;6.40;;;7.10;95.20;;;;;;5065724;28;20443;-71
2023/10/18 07:00:46;;;;;;;8.13;6.20;;;7.20;95.20;;;;;;5064894;28;20913;-72
2023/10/18 07:03:17;;;;;;;6.88;5.70;;;7.20;94.80;;;;;;5067347;28;20602;-69
2023/10/18 07:05:47;;;;;;;6.55;5.55;;;7.30;94.50;;;;;;5069505;28;20490;-71
2023/10/18 07:08:20;;;;;;;8.80;6.33;;;7.30;94.50;;;;;;5063817;28;20500;-72
2023/10/18 07:10:54;;;;;;;6.85;6.25;;;7.40;94.20;;;;;;5062112;28;20461;-71
2023/10/18 07:13:24;;;;;;;9.20;6.70;;;7.40;94.00;;;;;;5060345;28;20409;-71
2023/10/18 07:15:52;;;;;;;8.20;6.30;;;7.50;93.90;;;;;;5063870;28;20905;-70
2023/10/18 07:18:20;;;;;;;7.07;5.93;;;7.50;93.70;;;;;;5059338;28;20427;-71
2023/10/18 07:20:49;;;;;;;6.95;5.97;;;7.60;93.60;;;;;;5069500;28;20419;-71
2023/10/18 07:23:21;;;;;;;9.98;6.55;;;7.60;93.40;;;;;;5068284;28;20459;-71
2023/10/18 07:25:48;;;;;;;7.60;6.80;;;7.70;93.40;;;;;;5075389;28;20419;-72
2023/10/18 07:28:15;;;;;;;7.57;6.40;;;7.80;93.30;;;;;;5065841;28;20492;-70
2023/10/18 07:30:46;;;;;;;7.82;6.78;;;7.80;93.00;;;;;;5066840;28;20466;-71
2023/10/18 07:33:15;;;;;;;8.90;6.60;;;7.90;92.90;;;;;;5059888;28;20927;-71
2023/10/18 07:35:44;;;;;;;8.10;6.30;;;7.90;92.90;;;;;;5070493;28;20431;-71
2023/10/18 07:38:11;;;;;;;6.50;5.90;;;8.00;92.50;;;;;;5068668;28;20674;-71
2023/10/18 07:40:40;;;;;;;8.75;6.47;;;8.00;92.70;;;;;;5063828;28;20434;-71
2023/10/18 07:43:12;;;;;;;10.07;7.38;;;8.10;92.50;;;;;;5061223;28;20437;-71
2023/10/18 07:45:39;;;;;;;7.95;6.80;;;8.20;92.50;;;;;;5062094;28;20489;-71
2023/10/18 07:48:11;;;;;;;7.97;7.18;;;8.20;92.50;;;;;;5064608;28;20414;-71
2023/10/18 07:50:42;;;;;;;8.98;7.07;;;8.40;92.30;;;;;;5059155;28;20433;-71
2023/10/18 07:53:11;;;;;;;10.15;7.60;;;8.40;92.20;;;;;;5050277;28;20413;-71
2023/10/18 07:55:41;;;;;;;8.90;7.10;;;8.50;92.00;;;;;;5067317;28;20438;-71
2023/10/18 07:58:18;;;;;;;8.60;7.55;;;8.60;92.00;;;;;;5070742;28;20461;-71
2023/10/18 08:01:07;;;;;;;8.98;7.50;;;8.60;91.90;;;;;;5067255;28;20979;-71
2023/10/18 08:03:35;;;;;;;7.38;6.50;;;8.70;92.20;;;;;;5055135;28;20427;-72
2023/10/18 08:06:06;;;;;;;8.18;7.00;;;8.70;91.80;;;;;;5067016;28;20771;-71
2023/10/18 08:08:35;;;;;;;8.10;7.30;;;8.80;91.90;;;;;;5066077;28;20436;-70
2023/10/18 08:11:05;;;;;;;9.18;7.85;;;8.90;92.00;;;;;;5062497;28;20417;-70
2023/10/18 08:13:43;;;;;;;11.05;7.65;;;8.90;91.70;;;;;;5059635;28;20413;-70
2023/10/18 08:16:10;;;;;;;10.75;8.00;;;9.00;91.70;;;;;;5051471;28;20502;-70
2023/10/18 08:18:42;;;;;;;10.10;7.30;;;9.10;91.40;;;;;;5070828;28;20790;-70
2023/10/18 08:21:25;;;;;;;9.32;7.35;;;9.10;91.30;;;;;;5061476;28;20412;-70
2023/10/18 08:23:53;;;;;;;8.10;7.30;;;9.20;90.70;;;;;;5061286;28;20411;-69
2023/10/18 08:26:20;;;;;;;8.45;7.55;;;9.30;90.90;;;;;;5069598;28;20436;-69
2023/10/18 08:28:47;;;;;;;8.00;7.10;;;9.40;90.70;;;;;;5058508;28;20926;-69
2023/10/18 08:31:26;;;;;;;8.52;7.10;;;9.50;90.50;;;;;;5066868;28;20918;-69
2023/10/18 08:33:54;;;;;;;8.25;7.30;;;9.50;90.20;;;;;;5075308;28;20861;-71
2023/10/18 08:36:29;;;;;;;7.60;6.80;;;9.60;90.30;;;;;;5062184;28;20850;-71
2023/10/18 08:38:56;;;;;;;8.13;6.80;;;9.70;89.50;;;;;;5072266;28;20494;-70
2023/10/18 08:41:31;;;;;;;8.35;6.97;;;9.70;89.30;;;;;;5057706;28;20424;-72
2023/10/18 08:44:08;;;;;;;7.60;6.90;;;9.80;89.60;;;;;;5065196;28;20419;-71
2023/10/18 08:46:41;;;;;;;7.80;6.60;;;10.00;88.60;;;;;;5064039;28;20441;-72
2023/10/18 08:49:10;;;;;;;7.63;6.65;;;10.30;86.80;;;;;;5064098;28;20410;-71
2023/10/18 08:51:43;;;;;;;6.80;6.20;;;10.40;85.20;;;;;;5068831;28;20411;-71
2023/10/18 08:54:17;;;;;;;7.07;6.47;;;10.40;85.80;;;;;;5064383;28;20408;-71
2023/10/18 08:56:44;;;;;;;7.22;6.53;;;10.50;85.50;;;;;;5096054;22;20516;-70
2023/10/18 08:59:12;;;;;;;7.70;6.90;;;10.50;84.30;;;;;;5102343;28;20431;-70
2023/10/18 09:02:08;;;;;;;7.40;6.70;;;10.60;84.50;;;;;;5103217;28;20844;-70
2023/10/18 09:04:31;;;;;;;7.40;6.70;;;10.70;83.20;;;;;;5108621;28;20408;-70
2023/10/18 09:07:01;;;;;;;7.88;7.07;;;10.70;83.00;;;;;;5105207;28;20469;-69
2023/10/18 09:09:34;;;;;;;7.68;6.88;;;10.80;82.80;;;;;;5102054;28;20565;-70
2023/10/18 09:12:14;;;;;;;10.02;7.10;;;10.90;83.00;;;;;;5095638;28;20724;-69
2023/10/18 09:14:41;;;;;;;7.57;6.88;;;11.10;81.70;;;;;;5101462;28;20800;-70
2023/10/18 09:17:10;;;;;;;7.10;6.50;;;11.10;81.30;;;;;;5089475;28;20426;-70
2023/10/18 09:19:38;;;;;;;8.65;7.28;;;11.20;80.40;;;;;;5103972;28;20420;-69
2023/10/18 09:22:08;;;;;;;8.00;7.20;;;11.30;79.20;;;;;;5087071;28;20749;-70
2023/10/18 09:24:43;;;;;;;8.52;7.63;;;11.20;79.70;;;;;;5104770;28;20419;-70
2023/10/18 09:27:09;;;;;;;9.80;7.30;;;11.30;79.10;;;;;;5095728;28;20433;-70
2023/10/18 09:29:37;;;;;;;7.97;7.17;;;11.30;79.00;;;;;;5099646;28;20400;-69
2023/10/18 09:32:09;;;;;;;7.80;7.10;;;11.30;77.90;;;;;;5104757;28;20439;-70
2023/10/18 09:34:38;;;;;;;7.60;6.80;;;11.40;77.70;;;;;;5101865;28;20407;-70
2023/10/18 09:37:11;;;;;;;7.53;6.55;;;11.40;78.00;;;;;;5104222;28;20501;-69
2023/10/18 09:39:39;;;;;;;7.60;6.90;;;11.50;77.20;;;;;;5102441;28;20428;-69
2023/10/18 09:42:06;;;;;;;7.53;6.83;;;11.60;76.00;;;;;;5104528;28;20454;-70
2023/10/18 09:44:33;;;;;;;7.50;6.80;;;11.60;76.10;;;;;;5106374;28;20428;-70
2023/10/18 09:47:01;;;;;;;8.82;7.90;;;11.70;75.10;;;;;;5105844;28;20463;-69
2023/10/18 09:49:28;;;;;;;9.02;7.80;;;11.90;75.40;;;;;;5097219;28;20485;-70
2023/10/18 09:51:55;;;;;;;7.22;6.53;;;12.30;75.00;;;;;;5099209;28;20413;-70
2023/10/18 09:54:23;;;;;;;7.63;6.32;;;12.60;72.40;;;;;;5088792;28;20533;-70
2023/10/18 09:56:54;;;;;;;7.65;6.72;;;13.00;69.30;;;;;;5094430;28;20438;-70
2023/10/18 09:59:30;;;;;;;9.48;6.50;;;13.20;67.20;;;;;;5093170;28;20409;-70
2023/10/18 10:02:07;;;;;;;8.30;6.97;;;13.20;66.20;;;;;;5105708;28;20803;-70
2023/10/18 10:04:36;;;;;;;6.65;6.05;;;13.30;66.10;;;;;;5093415;28;20416;-70
2023/10/18 10:09:48;;;;;;;7.68;5.90;;;13.60;63.50;;;;;;5102184;28;20403;-70
2023/10/18 10:12:18;;;;;;;7.55;5.63;;;13.70;61.00;;;;;;5093211;28;20517;-70
2023/10/18 10:14:45;;;;;;;7.20;6.30;;;13.70;60.90;;;;;;5098315;28;20410;-70
2023/10/18 10:17:15;;;;;;;5.90;5.30;;;13.80;61.50;;;;;;5093803;28;20440;-70
2023/10/18 10:19:46;;;;;;;5.70;5.20;;;13.90;60.60;;;;;;5105866;28;20496;-70
2023/10/18 10:22:17;;;;;;;5.85;5.25;;;14.00;58.70;;;;;;5097147;28;20499;-69
2023/10/18 10:24:50;;;;;;;7.20;5.45;;;14.20;59.00;;;;;;5098818;28;20408;-69
2023/10/18 10:27:41;;;;;;;8.53;5.10;;;14.30;57.80;;;;;;5101315;28;20543;-69
2023/10/18 10:30:19;;;;;;;5.47;4.90;;;14.30;57.50;;;;;;5094903;28;20504;-69
2023/10/18 10:32:47;;;;;;;6.00;4.82;;;14.40;56.90;;;;;;5105431;28;20569;-70
2023/10/18 10:35:16;;;;;;;5.10;4.60;;;14.50;57.30;;;;;;5093949;28;20406;-70
2023/10/18 10:37:50;;;;;;;5.80;4.60;;;14.60;57.50;;;;;;5105179;28;20835;-70
2023/10/18 10:40:35;;;;;;;4.85;4.35;;;14.80;56.20;;;;;;5097588;28;20450;-70
2023/10/18 10:43:08;;;;;;;5.72;4.00;;;15.00;56.20;;;;;;5087158;28;20441;-70
2023/10/18 10:45:38;;;;;;;4.60;4.20;;;15.10;54.90;;;;;;5103682;28;20408;-70
2023/10/18 10:48:31;;;;;;;5.30;4.50;;;15.30;54.30;;;;;;5097054;28;20516;-70
2023/10/18 10:51:06;;;;;;;6.28;4.80;;;15.30;54.50;;;;;;5104889;28;20509;-70
2023/10/18 10:53:35;;;;;;;5.95;5.07;;;15.60;54.70;;;;;;5092610;28;20482;-70
2023/10/18 10:56:16;;;;;;;5.40;4.50;;;15.70;54.10;;;;;;5086781;28;20482;-70
2023/10/18 10:58:48;;;;;;;5.78;4.30;;;15.80;53.60;;;;;;5099192;28;20737;-70
2023/10/18 11:01:31;;;;;;;4.80;4.00;;;15.90;53.60;;;;;;5092902;28;20431;-70
2023/10/18 11:03:59;;;;;;;5.93;3.70;;;15.80;52.50;;;;;;5089995;28;20892;-70
2023/10/18 11:06:29;;;;;;;4.43;3.72;;;15.80;52.50;;;;;;5100101;28;20412;-70
2023/10/18 11:08:56;;;;;;;7.07;3.97;;;15.90;52.00;;;;;;5095152;28;20507;-70
2023/10/18 11:11:26;;;;;;;3.95;3.55;;;15.90;52.00;;;;;;5101607;28;20404;-70
2023/10/18 11:13:54;;;;;;;4.70;3.65;;;15.90;52.70;;;;;;5098579;28;20723;-71
2023/10/18 11:16:21;;;;;;;4.97;3.78;;;16.00;52.10;;;;;;5096508;28;20912;-71
2023/10/18 11:18:49;;;;;;;4.00;3.60;;;16.10;52.10;;;;;;5091409;28;20437;-70
2023/10/18 11:21:24;;;;;;;3.63;3.33;;;16.20;52.60;;;;;;5097216;28;20506;-71
2023/10/18 11:23:53;;;;;;;4.55;3.22;;;16.20;52.40;;;;;;5087897;28;20422;-70
2023/10/18 11:26:24;;;;;;;3.90;3.50;;;16.20;51.50;;;;;;5097365;28;20954;-71
2023/10/18 11:28:54;;;;;;;3.60;3.30;;;16.20;51.60;;;;;;5091087;28;20412;-70
2023/10/18 11:31:27;;;;;;;4.07;3.30;;;16.20;51.50;;;;;;5095072;28;20504;-70
2023/10/18 11:33:59;;;;;;;4.43;3.08;;;16.10;50.60;;;;;;5102032;28;20829;-70
2023/10/18 11:36:28;;;;;;;4.25;3.20;;;16.00;51.00;;;;;;5103035;28;20412;-70
2023/10/18 11:41:41;;;;;;;4.47;3.20;;;16.20;51.30;;;;;;5100413;28;20937;-70
2023/10/18 11:44:13;;;;;;;4.80;2.90;;;16.40;51.20;;;;;;5092772;28;20767;-70
2023/10/18 11:46:49;;;;;;;3.22;2.60;;;16.50;50.20;;;;;;5101228;28;20507;-71
2023/10/18 11:49:19;;;;;;;3.20;2.70;;;16.60;50.00;;;;;;5092745;28;20460;-70
2023/10/18 11:51:48;;;;;;;3.40;2.70;;;16.60;49.60;;;;;;5099006;28;20492;-71
2023/10/18 11:54:28;;;;;;;5.20;3.00;;;16.80;49.70;;;;;;5104576;28;20438;-70
2023/10/18 11:56:56;;;;;;;3.80;2.67;;;16.90;49.20;;;;;;5093686;28;20770;-70
2023/10/18 11:59:23;;;;;;;4.10;2.90;;;16.90;49.10;;;;;;5102949;28;20581;-70
2023/10/18 12:01:56;;;;;;;2.97;2.47;;;16.90;49.70;;;;;;5088725;28;20409;-71
2023/10/18 12:04:28;;;;;;;3.50;2.50;;;17.10;50.20;;;;;;5089840;28;20425;-70
2023/10/18 12:06:56;;;;;;;3.10;2.60;;;17.40;48.90;;;;;;5096333;28;20489;-71
2023/10/18 12:09:26;;;;;;;4.47;3.22;;;17.60;48.00;;;;;;5100915;28;20433;-70
2023/10/18 12:11:54;;;;;;;2.40;2.20;;;17.80;48.30;;;;;;5092728;28;20415;-70
2023/10/18 12:14:22;;;;;;;3.47;2.42;;;17.90;47.60;;;;;;5094180;28;20744;-71
2023/10/18 12:16:50;;;;;;;4.65;2.90;;;18.10;47.20;;;;;;5093286;28;20865;-71
2023/10/18 12:19:18;;;;;;;4.32;2.30;;;18.30;45.90;;;;;;5096177;28;20503;-70
2023/10/18 12:21:48;;;;;;;3.40;2.22;;;18.30;45.40;;;;;;5086367;28;20414;-71
2023/10/18 12:24:16;;;;;;;5.50;2.23;;;18.40;44.50;;;;;;5094830;28;20532;-70
2023/10/18 12:26:45;;;;;;;3.60;2.50;;;18.30;44.80;;;;;;5101147;28;20419;-71
2023/10/18 12:29:16;;;;;;;2.90;2.50;;;18.20;44.80;;;;;;5097320;28;20525;-70
2023/10/18 12:31:52;;;;;;;3.73;2.90;;;18.00;45.10;;;;;;5097179;28;20409;-70
2023/10/18 12:34:28;;;;;;;3.40;2.72;;;17.90;45.70;;;;;;5097976;28;20745;-71
2023/10/18 12:36:57;;;;;;;5.32;2.38;;;17.90;45.30;;;;;;5100602;28;20611;-70
2023/10/18 12:39:25;;;;;;;3.65;2.33;;;17.90;46.20;;;;;;5094861;28;20897;-71
2023/10/18 12:41:53;;;;;;;2.65;2.33;;;17.80;45.70;;;;;;5097476;28;20915;-71
2023/10/18 12:44:21;;;;;;;5.20;2.30;;;17.70;46.70;;;;;;5093157;28;20921;-71
2023/10/18 12:46:50;;;;;;;3.10;2.40;;;17.60;47.50;;;;;;5098466;28;20437;-70
2023/10/18 12:49:22;;;;;;;2.50;2.30;;;17.60;47.60;;;;;;5088963;28;20433;-70
2023/10/18 12:51:59;;;;;;;3.47;2.10;;;17.60;47.70;;;;;;5092401;28;20624;-70
2023/10/18 12:54:30;;;;;;;3.65;2.20;;;17.60;47.40;;;;;;5085977;28;20436;-70
2023/10/18 12:56:58;;;;;;;3.90;2.30;;;17.50;47.00;;;;;;5088367;28;20412;-70
2023/10/18 12:59:24;;;;;;;2.40;2.20;;;17.50;48.10;;;;;;5094023;28;20602;-70
2023/10/18 13:01:58;;;;;;;3.45;2.60;;;17.40;47.90;;;;;;5098575;28;20442;-70
2023/10/18 13:04:24;;;;;;;2.90;2.20;;;17.30;48.30;;;;;;5101759;28;20498;-70
2023/10/18 13:06:53;;;;;;;4.65;2.50;;;17.30;48.30;;;;;;5098335;28;20449;-69
2023/10/18 13:09:21;;;;;;;5.33;2.50;;;17.40;48.40;;;;;;5097180;28;20445;-69
2023/10/18 13:14:36;;;;;;;3.08;2.40;;;17.00;48.20;;;;;;5088916;28;20552;-69
2023/10/18 13:17:09;;;;;;;3.30;2.17;;;16.90;49.30;;;;;;5092420;28;20414;-69
2023/10/18 13:19:41;;;;;;;4.82;2.45;;;16.90;50.00;;;;;;5098976;28;20418;-69
2023/10/18 13:22:16;;;;;;;3.10;2.30;;;16.90;50.00;;;;;;5101726;28;20504;-69
2023/10/18 13:24:43;;;;;;;4.00;2.22;;;17.10;49.20;;;;;;5105126;28;20484;-69
2023/10/18 13:27:14;;;;;;;3.70;2.33;;;17.20;49.50;;;;;;5101360;28;20423;-69